createdAt,value
2018-01-31T01:52:23.395Z,11.32
2018-01-31T01:53:03.917Z,11.32
2018-01-31T01:53:44.497Z,11.37
2018-01-31T01:54:24.997Z,11.47
2018-01-31T01:55:05.545Z,11.36
2018-01-31T01:55:46.253Z,11.44
2018-01-31T01:56:26.804Z,11.58
2018-01-31T01:57:07.353Z,11.61
2018-01-31T01:57:47.931Z,11.51
2018-01-31T01:58:28.430Z,11.51
2018-01-31T01:59:08.948Z,11.52
2018-01-31T01:59:49.574Z,11.57
2018-01-31T02:00:30.116Z,11.54
2018-01-31T02:01:10.648Z,11.52
2018-01-31T02:01:51.412Z,11.55
2018-01-31T02:02:31.739Z,11.54
2018-01-31T02:03:13.188Z,11.51
2018-01-31T02:03:53.749Z,11.52
2018-01-31T02:04:34.277Z,11.61
2018-01-31T02:05:14.845Z,11.64
2018-01-31T02:05:55.355Z,11.57
2018-01-31T02:06:36.006Z,11.57
2018-01-31T02:07:16.517Z,11.62
2018-01-31T02:07:57.042Z,11.57
2018-01-31T02:08:37.681Z,11.52
2018-01-31T02:09:18.303Z,11.4
2018-01-31T02:09:58.804Z,11.46
2018-01-31T02:10:39.344Z,11.44
2018-01-31T02:11:19.865Z,11.6
2018-01-31T02:12:00.413Z,11.62
2018-01-31T02:12:40.970Z,11.6
2018-01-31T02:13:21.534Z,11.61
2018-01-31T02:14:02.097Z,11.57
2018-01-31T02:14:42.670Z,11.46
2018-01-31T02:15:23.198Z,11.62
2018-01-31T02:16:03.778Z,11.67
2018-01-31T02:16:44.278Z,11.44
2018-01-31T02:17:24.810Z,11.57
2018-01-31T02:18:05.392Z,11.46
2018-01-31T02:18:45.847Z,11.52
2018-01-31T02:19:26.466Z,11.51
2018-01-31T02:20:06.984Z,11.57
2018-01-31T02:20:47.500Z,11.55
2018-01-31T02:21:28.010Z,11.52
2018-01-31T02:22:08.596Z,11.49
2018-01-31T02:22:49.079Z,11.51
2018-01-31T02:23:29.661Z,11.46
2018-01-31T02:24:10.208Z,11.57
2018-01-31T02:24:50.741Z,11.62
2018-01-31T02:25:31.304Z,11.49
2018-01-31T02:26:11.832Z,11.61
2018-01-31T02:26:52.469Z,11.65
2018-01-31T02:27:32.968Z,11.51
2018-01-31T02:28:13.599Z,11.47
2018-01-31T02:28:54.195Z,11.35
2018-01-31T02:29:34.698Z,11.49
2018-01-31T02:30:15.295Z,11.37
2018-01-31T02:30:55.794Z,11.44
2018-01-31T02:31:36.307Z,11.42
2018-01-31T02:32:16.801Z,11.47
2018-01-31T02:32:57.372Z,11.55
2018-01-31T02:33:37.960Z,11.42
2018-01-31T02:34:18.451Z,11.51
2018-01-31T02:34:59.045Z,11.39
2018-01-31T02:35:39.569Z,11.46
2018-01-31T02:36:20.134Z,11.49
2018-01-31T02:37:00.644Z,11.49
2018-01-31T02:37:41.188Z,11.47
2018-01-31T02:38:21.748Z,11.54
2018-01-31T02:39:02.274Z,11.58
2018-01-31T02:39:42.796Z,11.52
2018-01-31T02:40:23.307Z,11.46
2018-01-31T02:41:03.846Z,11.46
2018-01-31T02:41:44.391Z,11.6
2018-01-31T02:42:24.885Z,11.64
2018-01-31T02:43:05.398Z,11.61
2018-01-31T02:43:45.948Z,11.6
2018-01-31T02:44:26.451Z,11.64
2018-01-31T02:45:06.973Z,11.64
2018-01-31T02:45:47.499Z,11.64
2018-01-31T02:46:28.092Z,11.64
2018-01-31T02:47:08.624Z,11.7
2018-01-31T02:47:49.119Z,11.64
2018-01-31T02:48:29.677Z,11.67
2018-01-31T02:49:10.236Z,11.61
2018-01-31T02:49:50.783Z,11.61
2018-01-31T02:50:31.338Z,11.65
2018-01-31T02:51:11.848Z,11.57
2018-01-31T02:51:52.380Z,11.64
2018-01-31T02:52:32.909Z,11.55
2018-01-31T02:53:13.459Z,11.58
2018-01-31T02:53:54.012Z,11.47
2018-01-31T02:54:34.479Z,11.54
2018-01-31T02:55:15.073Z,11.51
2018-01-31T02:55:55.626Z,11.57
2018-01-31T02:56:36.087Z,11.47
2018-01-31T02:57:16.672Z,11.44
2018-01-31T02:57:57.182Z,11.6
2018-01-31T02:58:37.722Z,11.58
2018-01-31T02:59:18.265Z,11.61
2018-01-31T02:59:58.760Z,11.55
2018-01-31T03:00:39.339Z,11.47
2018-01-31T03:01:19.870Z,11.58
2018-01-31T03:02:00.387Z,11.37
2018-01-31T03:02:40.972Z,11.57
2018-01-31T03:03:21.495Z,11.57
2018-01-31T03:04:02.040Z,11.73
2018-01-31T03:04:42.581Z,11.72
2018-01-31T03:05:23.079Z,11.64
2018-01-31T03:06:03.650Z,11.67
2018-01-31T03:06:44.249Z,11.49
2018-01-31T03:07:24.744Z,11.61
2018-01-31T03:08:05.294Z,11.58
2018-01-31T03:08:45.800Z,11.54
2018-01-31T03:09:26.331Z,11.57
2018-01-31T03:10:06.912Z,11.47
2018-01-31T03:10:47.436Z,11.51
2018-01-31T03:11:27.980Z,11.55
2018-01-31T03:12:08.516Z,11.55
2018-01-31T03:12:49.047Z,11.62
2018-01-31T03:13:29.559Z,11.7
2018-01-31T03:14:10.123Z,11.73
2018-01-31T03:14:50.649Z,11.79
2018-01-31T03:15:31.239Z,11.78
2018-01-31T03:16:11.749Z,11.75
2018-01-31T03:16:52.298Z,11.64
2018-01-31T03:17:32.804Z,11.65
2018-01-31T03:18:13.361Z,11.65
2018-01-31T03:18:53.917Z,11.54
2018-01-31T03:19:34.425Z,11.57
2018-01-31T03:20:15.019Z,11.61
2018-01-31T03:20:55.528Z,11.55
2018-01-31T03:21:36.053Z,11.54
2018-01-31T03:22:16.616Z,11.47
2018-01-31T03:22:57.158Z,11.55
2018-01-31T03:23:37.675Z,11.58
2018-01-31T03:24:18.218Z,11.49
2018-01-31T03:24:58.741Z,11.49
2018-01-31T03:25:39.278Z,11.51
2018-01-31T03:26:19.784Z,11.51
2018-01-31T03:27:00.319Z,11.49
2018-01-31T03:27:40.825Z,11.58
2018-01-31T03:28:21.392Z,11.57
2018-01-31T03:29:01.929Z,11.52
2018-01-31T03:29:42.486Z,11.47
2018-01-31T03:30:22.996Z,11.54
2018-01-31T03:31:03.586Z,11.6
2018-01-31T03:31:44.166Z,11.54
2018-01-31T03:32:24.688Z,11.52
2018-01-31T03:33:05.259Z,11.67
2018-01-31T03:33:45.774Z,11.73
2018-01-31T03:34:26.330Z,11.76
2018-01-31T03:35:06.864Z,11.79
2018-01-31T03:35:47.417Z,11.73
2018-01-31T03:36:28.148Z,11.72
2018-01-31T03:37:08.693Z,11.69
2018-01-31T03:37:49.281Z,11.67
2018-01-31T03:38:29.776Z,11.67
2018-01-31T03:39:10.295Z,11.64
2018-01-31T03:39:50.904Z,11.72
2018-01-31T03:40:31.464Z,11.79
2018-01-31T03:41:11.997Z,11.79
2018-01-31T03:41:52.532Z,11.82
2018-01-31T03:42:33.041Z,11.88
2018-01-31T03:43:13.626Z,11.85
2018-01-31T03:43:54.161Z,11.9
2018-01-31T03:44:34.677Z,11.85
2018-01-31T03:45:15.231Z,11.85
2018-01-31T03:45:55.787Z,11.85
2018-01-31T03:46:36.314Z,11.83
2018-01-31T03:47:16.883Z,11.78
2018-01-31T03:47:57.399Z,11.75
2018-01-31T03:48:37.926Z,11.75
2018-01-31T03:49:18.454Z,11.8
2018-01-31T03:49:59.000Z,11.8
2018-01-31T03:50:39.520Z,11.78
2018-01-31T03:51:20.061Z,11.82
2018-01-31T03:52:00.605Z,11.82
2018-01-31T03:52:41.122Z,11.83
2018-01-31T03:53:21.638Z,11.82
2018-01-31T03:54:02.169Z,11.83
2018-01-31T03:54:42.693Z,11.86
2018-01-31T03:55:23.233Z,11.83
2018-01-31T03:56:03.756Z,11.78
2018-01-31T03:56:44.306Z,11.76
2018-01-31T03:57:24.865Z,11.73
2018-01-31T03:58:05.359Z,11.73
2018-01-31T03:58:45.954Z,11.75
2018-01-31T03:59:26.408Z,11.78
2018-01-31T04:00:06.991Z,11.75
2018-01-31T04:00:47.466Z,11.85
2018-01-31T04:01:28.018Z,11.88
2018-01-31T04:02:08.589Z,11.86
2018-01-31T04:02:49.125Z,11.8
2018-01-31T04:03:29.670Z,11.75
2018-01-31T04:04:10.199Z,11.7
2018-01-31T04:04:50.705Z,11.67
2018-01-31T04:05:31.456Z,11.69
2018-01-31T04:06:11.984Z,11.67
2018-01-31T04:06:52.526Z,11.65
2018-01-31T04:07:33.069Z,11.79
2018-01-31T04:08:13.623Z,11.8
2018-01-31T04:08:54.145Z,11.7
2018-01-31T04:09:34.687Z,11.7
2018-01-31T04:10:15.306Z,11.62
2018-01-31T04:10:55.790Z,11.69
2018-01-31T04:11:36.289Z,11.65
2018-01-31T04:12:16.830Z,11.72
2018-01-31T04:12:57.421Z,11.79
2018-01-31T04:13:37.991Z,11.79
2018-01-31T04:14:18.522Z,11.8
2018-01-31T04:14:59.090Z,11.8
2018-01-31T04:15:39.636Z,11.78
2018-01-31T04:16:20.192Z,11.91
2018-01-31T04:17:00.686Z,11.85
2018-01-31T04:17:41.218Z,11.98
2018-01-31T04:18:21.736Z,11.96
2018-01-31T04:19:02.260Z,11.98
2018-01-31T04:19:42.804Z,11.96
2018-01-31T04:20:23.343Z,12.04
2018-01-31T04:21:03.901Z,11.9
2018-01-31T04:21:44.411Z,11.91
2018-01-31T04:22:24.938Z,11.95
2018-01-31T04:23:05.441Z,11.98
2018-01-31T04:23:46.009Z,12.01
2018-01-31T04:24:26.555Z,12.01
2018-01-31T04:25:07.024Z,11.99
2018-01-31T04:25:47.628Z,11.95
2018-01-31T04:26:28.114Z,11.86
2018-01-31T04:27:08.648Z,11.8
2018-01-31T04:27:49.297Z,11.76
2018-01-31T04:28:29.701Z,11.79
2018-01-31T04:29:10.249Z,11.86
2018-01-31T04:29:50.754Z,11.96
2018-01-31T04:30:31.221Z,11.99
2018-01-31T04:31:11.786Z,11.8
2018-01-31T04:31:52.335Z,11.91
2018-01-31T04:32:32.829Z,11.75
2018-01-31T04:33:13.460Z,11.72
2018-01-31T04:33:53.957Z,11.69
2018-01-31T04:34:34.486Z,11.65
2018-01-31T04:35:15.023Z,11.69
2018-01-31T04:35:55.544Z,11.72
2018-01-31T04:36:36.120Z,11.55
2018-01-31T04:37:16.677Z,11.57
2018-01-31T04:37:57.178Z,11.49
2018-01-31T04:38:37.752Z,11.64
2018-01-31T04:39:18.260Z,11.58
2018-01-31T04:39:58.810Z,11.67
2018-01-31T04:40:39.366Z,11.79
2018-01-31T04:41:19.823Z,11.76
2018-01-31T04:42:00.413Z,11.73
2018-01-31T04:42:40.935Z,11.69
2018-01-31T04:43:21.418Z,11.61
2018-01-31T04:44:02.000Z,11.7
2018-01-31T04:44:42.537Z,11.67
2018-01-31T04:45:23.101Z,11.79
2018-01-31T04:46:03.607Z,11.75
2018-01-31T04:46:44.327Z,11.72
2018-01-31T04:47:24.817Z,11.8
2018-01-31T04:48:05.326Z,11.85
2018-01-31T04:48:45.872Z,11.91
2018-01-31T04:49:26.513Z,11.82
2018-01-31T04:50:07.020Z,11.8
2018-01-31T04:50:47.574Z,11.76
2018-01-31T04:51:28.225Z,11.78
2018-01-31T04:52:08.675Z,11.69
2018-01-31T04:52:49.193Z,11.69
2018-01-31T04:53:29.736Z,11.73
2018-01-31T04:54:10.235Z,11.73
2018-01-31T04:54:50.777Z,11.79
2018-01-31T04:55:31.345Z,11.69
2018-01-31T04:56:11.837Z,11.72
2018-01-31T04:56:52.423Z,11.61
2018-01-31T04:57:32.890Z,11.67
2018-01-31T04:58:13.415Z,11.64
2018-01-31T04:58:53.911Z,11.7
2018-01-31T04:59:34.555Z,11.72
2018-01-31T05:00:15.145Z,11.73
2018-01-31T05:00:55.597Z,11.9
2018-01-31T05:01:36.135Z,11.76
2018-01-31T05:02:16.644Z,11.65
2018-01-31T05:02:57.184Z,11.69
2018-01-31T05:03:37.724Z,11.64
2018-01-31T05:04:18.287Z,11.65
2018-01-31T05:04:58.800Z,11.62
2018-01-31T05:05:39.333Z,11.73
2018-01-31T05:06:19.868Z,11.76
2018-01-31T05:07:00.411Z,11.72
2018-01-31T05:07:41.004Z,11.61
2018-01-31T05:08:21.517Z,11.65
2018-01-31T05:09:02.031Z,11.69
2018-01-31T05:09:42.568Z,11.61
2018-01-31T05:10:23.136Z,11.51
2018-01-31T05:11:03.903Z,11.58
2018-01-31T05:11:44.445Z,11.61
2018-01-31T05:12:24.996Z,11.58
2018-01-31T05:13:05.517Z,11.52
2018-01-31T05:13:46.044Z,11.51
2018-01-31T05:14:27.287Z,11.54
2018-01-31T05:15:07.166Z,11.44
2018-01-31T05:15:47.737Z,11.6
2018-01-31T05:16:28.232Z,11.6
2018-01-31T05:17:08.762Z,11.69
2018-01-31T05:17:49.271Z,11.67
2018-01-31T05:18:29.823Z,11.67
2018-01-31T05:19:10.359Z,11.67
2018-01-31T05:19:50.915Z,11.72
2018-01-31T05:20:33.724Z,11.67
2018-01-31T05:22:24.662Z,11.73
2018-01-31T05:23:05.148Z,11.7
2018-01-31T05:23:45.767Z,11.65
2018-01-31T05:24:26.287Z,11.6
2018-01-31T05:25:06.838Z,11.54
2018-01-31T05:25:47.409Z,11.49
2018-01-31T05:26:27.929Z,11.57
2018-01-31T05:27:08.440Z,11.54
2018-01-31T05:27:48.993Z,11.57
2018-01-31T05:28:29.463Z,11.49
2018-01-31T05:29:10.112Z,11.54
2018-01-31T05:29:52.795Z,11.55
2018-01-31T05:30:35.152Z,11.54
2018-01-31T05:31:16.778Z,11.57
2018-01-31T05:31:57.242Z,11.49
2018-01-31T05:32:37.845Z,11.62
2018-01-31T05:33:19.035Z,11.7
2018-01-31T05:34:00.744Z,11.58
2018-01-31T05:34:42.213Z,11.54
2018-01-31T05:35:23.514Z,11.55
2018-01-31T05:36:04.277Z,11.62
2018-01-31T05:36:45.068Z,11.7
2018-01-31T05:37:25.887Z,11.65
2018-01-31T05:38:08.100Z,11.65
2018-01-31T05:38:48.671Z,11.78
2018-01-31T05:39:30.339Z,11.73
2018-01-31T05:40:12.459Z,11.69
2018-01-31T05:40:54.000Z,11.6
2018-01-31T05:41:35.482Z,11.55
2018-01-31T05:42:15.913Z,11.55
2018-01-31T05:42:56.547Z,11.42
2018-01-31T05:43:37.193Z,11.42
2018-01-31T05:44:17.658Z,11.4
2018-01-31T05:44:58.450Z,11.47
2018-01-31T05:45:38.911Z,11.33
2018-01-31T05:46:19.601Z,11.39
2018-01-31T05:47:00.275Z,11.32
2018-01-31T05:47:40.817Z,11.49
2018-01-31T05:48:21.466Z,11.43
2018-01-31T05:49:01.929Z,11.55
2018-01-31T05:49:42.465Z,11.57
2018-01-31T05:50:23.571Z,11.62
2018-01-31T05:51:05.235Z,11.52
2018-01-31T05:51:48.279Z,11.47
2018-01-31T05:52:29.007Z,11.52
2018-01-31T05:53:11.034Z,11.44
2018-01-31T05:53:51.611Z,11.43
2018-01-31T05:54:32.526Z,11.47
2018-01-31T05:55:13.548Z,11.51
2018-01-31T05:55:54.130Z,11.49
2018-01-31T05:56:34.646Z,11.58
2018-01-31T05:57:15.231Z,11.57
2018-01-31T05:57:55.790Z,11.47
2018-01-31T05:58:36.390Z,11.49
2018-01-31T05:59:16.956Z,11.47
2018-01-31T05:59:57.630Z,11.49
2018-01-31T06:00:38.518Z,11.55
2018-01-31T06:01:18.757Z,11.51
2018-01-31T06:01:59.510Z,11.51
2018-01-31T06:02:40.119Z,11.52
2018-01-31T06:03:20.837Z,11.58
2018-01-31T06:04:02.749Z,11.55
2018-01-31T06:04:43.313Z,11.57
2018-01-31T06:05:24.367Z,11.57
2018-01-31T06:06:05.637Z,11.47
2018-01-31T06:06:45.802Z,11.57
2018-01-31T06:07:26.419Z,11.52
2018-01-31T06:08:06.906Z,11.57
2018-01-31T06:08:47.569Z,11.52
2018-01-31T06:09:29.586Z,11.37
2018-01-31T06:10:09.372Z,11.46
2018-01-31T06:10:50.001Z,11.46
2018-01-31T06:11:30.657Z,11.42
2018-01-31T06:12:11.851Z,11.51
2018-01-31T06:12:54.272Z,11.42
2018-01-31T06:13:35.592Z,11.4
2018-01-31T06:14:16.227Z,11.36
2018-01-31T06:14:56.801Z,11.28
2018-01-31T06:15:37.623Z,11.35
2018-01-31T06:16:18.696Z,11.36
2018-01-31T06:16:59.324Z,11.27
2018-01-31T06:17:40.109Z,11.28
2018-01-31T06:18:21.169Z,11.25
2018-01-31T06:19:03.062Z,11.32
2018-01-31T06:19:43.793Z,11.27
2018-01-31T06:20:24.362Z,11.35
2018-01-31T06:21:04.906Z,11.27
2018-01-31T06:21:45.671Z,11.29
2018-01-31T06:22:26.142Z,11.33
2018-01-31T06:23:06.685Z,11.33
2018-01-31T06:23:47.291Z,11.35
2018-01-31T06:24:27.803Z,11.33
2018-01-31T06:25:08.307Z,11.36
2018-01-31T06:25:48.864Z,11.44
2018-01-31T06:26:29.350Z,11.37
2018-01-31T06:27:09.918Z,11.44
2018-01-31T06:27:50.512Z,11.54
2018-01-31T06:28:31.074Z,11.55
2018-01-31T06:29:11.623Z,11.58
2018-01-31T06:29:52.096Z,11.61
2018-01-31T06:30:32.654Z,11.57
2018-01-31T06:31:13.193Z,11.49
2018-01-31T06:31:53.747Z,11.61
2018-01-31T06:32:34.284Z,11.58
2018-01-31T06:33:14.807Z,11.76
2018-01-31T06:33:55.429Z,11.78
2018-01-31T06:34:35.890Z,11.86
2018-01-31T06:35:16.526Z,11.8
2018-01-31T06:35:57.050Z,11.78
2018-01-31T06:36:37.563Z,11.72
2018-01-31T06:37:18.171Z,11.75
2018-01-31T06:37:58.709Z,11.72
2018-01-31T06:38:39.438Z,11.72
2018-01-31T06:39:19.977Z,11.73
2018-01-31T06:40:00.583Z,11.72
2018-01-31T06:40:41.079Z,11.86
2018-01-31T06:41:21.573Z,11.82
2018-01-31T06:42:02.125Z,11.95
2018-01-31T06:42:42.701Z,11.88
2018-01-31T06:43:23.235Z,11.91
2018-01-31T06:44:03.816Z,12.01
2018-01-31T06:44:44.416Z,11.98
2018-01-31T06:45:24.950Z,11.98
2018-01-31T06:46:05.514Z,11.98
2018-01-31T06:46:45.999Z,11.99
2018-01-31T06:47:26.544Z,11.91
2018-01-31T06:48:07.090Z,12.02
2018-01-31T06:48:47.624Z,12.04
2018-01-31T06:49:28.149Z,11.99
2018-01-31T06:50:08.705Z,12.01
2018-01-31T06:50:49.266Z,12.13
2018-01-31T06:51:29.808Z,12.12
2018-01-31T06:52:10.931Z,12.13
2018-01-31T06:52:51.516Z,12.13
2018-01-31T06:53:32.039Z,12.23
2018-01-31T06:54:12.560Z,12.28
2018-01-31T06:54:53.145Z,12.24
2018-01-31T06:55:33.668Z,12.14
2018-01-31T06:56:14.254Z,12.16
2018-01-31T06:56:54.777Z,12.1
2018-01-31T06:57:35.265Z,12.02
2018-01-31T06:58:16.389Z,11.88
2018-01-31T06:58:57.025Z,11.94
2018-01-31T06:59:37.587Z,11.99
2018-01-31T07:00:18.106Z,12.17
2018-01-31T07:00:58.664Z,12.12
2018-01-31T07:01:39.307Z,12.14
2018-01-31T07:02:19.818Z,12.16
2018-01-31T07:03:00.478Z,12.17
2018-01-31T07:03:40.994Z,12.1
2018-01-31T07:04:21.517Z,12.14
2018-01-31T07:05:02.813Z,12.14
2018-01-31T07:05:43.333Z,12.04
2018-01-31T07:06:23.846Z,11.94
2018-01-31T07:07:04.441Z,12.01
2018-01-31T07:07:44.909Z,11.99
2018-01-31T07:08:25.464Z,12.1
2018-01-31T07:09:06.070Z,12.12
2018-01-31T07:09:46.635Z,12.16
2018-01-31T07:10:27.177Z,12.23
2018-01-31T07:11:07.978Z,12.2
2018-01-31T07:11:48.497Z,12.07
2018-01-31T07:12:29.086Z,12.17
2018-01-31T07:13:09.652Z,12.27
2018-01-31T07:13:50.205Z,12.31
2018-01-31T07:14:30.746Z,12.28
2018-01-31T07:15:11.296Z,12.42
2018-01-31T07:15:51.829Z,12.92
2018-01-31T07:16:32.418Z,13.19
2018-01-31T07:17:13.714Z,12.93
2018-01-31T07:17:54.737Z,12.97
2018-01-31T07:18:35.513Z,12.96
2018-01-31T07:19:16.627Z,12.92
2018-01-31T07:19:57.707Z,13.1
2018-01-31T07:20:38.490Z,13
2018-01-31T07:21:19.751Z,13.29
2018-01-31T07:23:21.596Z,13.28
2018-01-31T07:24:02.151Z,12.97
2018-01-31T07:24:42.708Z,13
2018-01-31T07:25:23.301Z,13
2018-01-31T07:26:03.857Z,12.95
2018-01-31T07:26:44.405Z,12.92
2018-01-31T07:27:24.876Z,12.72
2018-01-31T07:28:05.463Z,12.68
2018-01-31T07:28:45.971Z,12.93
2018-01-31T07:29:26.471Z,13.42
2018-01-31T07:30:07.029Z,13.39
2018-01-31T07:30:47.575Z,13.57
2018-01-31T07:31:28.101Z,13.36
2018-01-31T07:32:08.690Z,13.73
2018-01-31T07:32:49.236Z,13.96
2018-01-31T07:33:29.726Z,13.79
2018-01-31T07:34:10.276Z,13.75
2018-01-31T07:34:50.818Z,13.87
2018-01-31T07:35:31.363Z,13.96
2018-01-31T07:36:11.905Z,13.99
2018-01-31T07:36:52.487Z,14.22
2018-01-31T07:37:33.026Z,14.18
2018-01-31T07:38:13.562Z,14.28
2018-01-31T07:38:54.249Z,14.39
2018-01-31T07:39:34.777Z,13.64
2018-01-31T07:40:15.279Z,13.54
2018-01-31T07:40:56.062Z,13.54
2018-01-31T07:41:36.632Z,13.54
2018-01-31T07:42:17.179Z,13.44
2018-01-31T07:42:57.697Z,13.51
2018-01-31T07:43:38.245Z,13.44
2018-01-31T07:44:18.841Z,13.29
2018-01-31T07:44:59.345Z,13.44
2018-01-31T07:45:39.890Z,13.52
2018-01-31T07:46:20.450Z,13.6
2018-01-31T07:47:01.015Z,13.45
2018-01-31T07:47:41.791Z,13.45
2018-01-31T07:48:22.184Z,13.36
2018-01-31T07:49:02.784Z,13.6
2018-01-31T07:49:43.243Z,13.55
2018-01-31T07:50:23.778Z,13.59
2018-01-31T07:51:04.442Z,13.63
2018-01-31T07:51:44.981Z,13.99
2018-01-31T07:52:25.525Z,13.96
2018-01-31T07:53:06.091Z,14.04
2018-01-31T07:53:46.639Z,14.2
2018-01-31T07:54:27.148Z,14.27
2018-01-31T07:55:07.619Z,14.2
2018-01-31T07:55:48.184Z,14.15
2018-01-31T07:56:28.786Z,14.15
2018-01-31T07:57:09.296Z,14.09
2018-01-31T07:57:49.852Z,14.07
2018-01-31T07:58:30.320Z,13.88
2018-01-31T07:59:10.904Z,13.69
2018-01-31T07:59:51.447Z,13.6
2018-01-31T08:00:32.083Z,13.62
2018-01-31T08:01:12.641Z,13.66
2018-01-31T08:01:53.192Z,13.78
2018-01-31T08:02:33.673Z,13.82
2018-01-31T08:03:14.250Z,13.78
2018-01-31T08:03:54.840Z,13.78
2018-01-31T08:04:35.353Z,13.77
2018-01-31T08:05:15.867Z,13.78
2018-01-31T08:05:56.456Z,13.95
2018-01-31T08:06:36.923Z,14.33
2018-01-31T08:07:17.467Z,14.6
2018-01-31T08:07:57.985Z,14.83
2018-01-31T08:08:38.537Z,14.6
2018-01-31T08:09:19.082Z,14.5
2018-01-31T08:09:59.615Z,14.84
2018-01-31T08:10:40.244Z,14.92
2018-01-31T08:11:20.742Z,14.92
2018-01-31T08:12:01.350Z,15.03
2018-01-31T08:12:41.863Z,15.2
2018-01-31T08:13:22.418Z,14.8
2018-01-31T08:14:02.981Z,14.64
2018-01-31T08:14:43.575Z,14.46
2018-01-31T08:15:24.127Z,14.62
2018-01-31T08:16:04.632Z,14.86
2018-01-31T08:16:45.187Z,14.78
2018-01-31T08:17:25.771Z,14.72
2018-01-31T08:18:06.286Z,14.65
2018-01-31T08:18:46.858Z,14.62
2018-01-31T08:19:27.396Z,14.55
2018-01-31T08:20:07.953Z,14.47
2018-01-31T08:20:48.528Z,14.52
2018-01-31T08:21:29.093Z,14.46
2018-01-31T08:22:09.628Z,14.72
2018-01-31T08:22:50.159Z,14.77
2018-01-31T08:23:30.746Z,14.78
2018-01-31T08:24:11.230Z,14.8
2018-01-31T08:24:51.827Z,14.86
2018-01-31T08:25:32.349Z,14.75
2018-01-31T08:26:12.941Z,14.58
2018-01-31T08:26:53.454Z,14.61
2018-01-31T08:27:33.984Z,14.52
2018-01-31T08:28:14.510Z,14.57
2018-01-31T08:28:55.048Z,14.5
2018-01-31T08:29:35.578Z,14.54
2018-01-31T08:30:16.138Z,14.55
2018-01-31T08:30:56.663Z,14.65
2018-01-31T08:31:37.235Z,14.72
2018-01-31T08:32:17.700Z,14.61
2018-01-31T08:32:58.289Z,14.52
2018-01-31T08:33:38.790Z,14.46
2018-01-31T08:34:19.364Z,14.46
2018-01-31T08:34:59.903Z,14.36
2018-01-31T08:35:40.456Z,14.43
2018-01-31T08:36:20.967Z,14.52
2018-01-31T08:37:01.458Z,14.5
2018-01-31T08:37:42.019Z,14.4
2018-01-31T08:38:22.538Z,14.18
2018-01-31T08:39:03.051Z,13.84
2018-01-31T08:39:43.558Z,13.81
2018-01-31T08:40:24.131Z,13.84
2018-01-31T08:41:04.739Z,13.87
2018-01-31T08:41:45.209Z,13.97
2018-01-31T08:42:25.791Z,14.15
2018-01-31T08:43:06.335Z,14.29
2018-01-31T08:43:46.868Z,14.22
2018-01-31T08:44:27.419Z,14.25
2018-01-31T08:45:07.910Z,14.15
2018-01-31T08:45:48.485Z,14.03
2018-01-31T08:46:29.039Z,14.04
2018-01-31T08:47:09.534Z,14.06
2018-01-31T08:47:50.089Z,14.18
2018-01-31T08:48:30.656Z,14.47
2018-01-31T08:49:11.200Z,14.52
2018-01-31T08:49:51.725Z,14.7
2018-01-31T08:50:32.289Z,14.61
2018-01-31T08:51:12.837Z,14.46
2018-01-31T08:51:53.356Z,14.75
2018-01-31T08:52:33.904Z,14.8
2018-01-31T08:53:14.518Z,14.91
2018-01-31T08:53:55.056Z,15.02
2018-01-31T08:54:35.599Z,15.09
2018-01-31T08:55:16.160Z,14.65
2018-01-31T08:55:56.681Z,14.5
2018-01-31T08:56:37.207Z,14.36
2018-01-31T08:57:17.779Z,14.43
2018-01-31T08:57:58.337Z,14.24
2018-01-31T08:58:38.898Z,14.33
2018-01-31T08:59:19.468Z,14.32
2018-01-31T09:00:00.036Z,14.15
2018-01-31T09:00:40.541Z,14.03
2018-01-31T09:01:21.106Z,14
2018-01-31T09:02:01.606Z,14.17
2018-01-31T09:02:42.172Z,14.22
2018-01-31T09:03:22.692Z,14.4
2018-01-31T09:04:03.231Z,14.46
2018-01-31T09:04:43.861Z,14.29
2018-01-31T09:05:24.399Z,14.5
2018-01-31T09:06:04.939Z,14.62
2018-01-31T09:06:45.489Z,14.55
2018-01-31T09:07:26.009Z,14.62
2018-01-31T09:08:06.540Z,14.62
2018-01-31T09:08:47.109Z,14.52
2018-01-31T09:09:27.660Z,14.47
2018-01-31T09:10:08.235Z,14.6
2018-01-31T09:10:48.753Z,14.43
2018-01-31T09:11:29.330Z,14.29
2018-01-31T09:12:09.813Z,14.12
2018-01-31T09:12:50.373Z,14.18
2018-01-31T09:13:30.938Z,14.15
2018-01-31T09:14:11.492Z,14.15
2018-01-31T09:14:52.056Z,14.24
2018-01-31T09:15:32.601Z,14.33
2018-01-31T09:16:13.140Z,14.36
2018-01-31T09:16:53.666Z,14.28
2018-01-31T09:17:34.188Z,14.28
2018-01-31T09:18:14.772Z,14.24
2018-01-31T09:18:55.261Z,14.17
2018-01-31T09:19:35.808Z,14.12
2018-01-31T09:20:16.370Z,13.71
2018-01-31T09:20:56.909Z,13.69
2018-01-31T09:21:37.408Z,13.89
2018-01-31T09:22:18.006Z,13.87
2018-01-31T09:22:58.501Z,13.97
2018-01-31T09:23:39.047Z,13.73
2018-01-31T09:24:19.567Z,13.87
2018-01-31T09:25:00.098Z,14.39
2018-01-31T09:25:40.617Z,14.69
2018-01-31T09:26:21.191Z,14.81
2018-01-31T09:27:01.760Z,14.83
2018-01-31T09:27:42.336Z,14.86
2018-01-31T09:28:22.876Z,15.06
2018-01-31T09:29:03.506Z,15.27
2018-01-31T09:29:44.023Z,15.09
2018-01-31T09:30:24.552Z,15.1
2018-01-31T09:31:05.114Z,14.98
2018-01-31T09:31:45.615Z,14.78
2018-01-31T09:32:26.190Z,14.73
2018-01-31T09:33:06.724Z,14.69
2018-01-31T09:33:47.242Z,14.94
2018-01-31T09:34:27.795Z,14.75
2018-01-31T09:35:08.312Z,14.73
2018-01-31T09:35:48.867Z,14.64
2018-01-31T09:36:29.389Z,14.61
2018-01-31T09:37:09.974Z,14.8
2018-01-31T09:37:50.511Z,14.81
2018-01-31T09:38:31.072Z,14.83
2018-01-31T09:39:11.610Z,15.03
2018-01-31T09:39:52.155Z,15.03
2018-01-31T09:40:32.743Z,15.09
2018-01-31T09:41:13.213Z,14.99
2018-01-31T09:41:53.799Z,14.95
2018-01-31T09:42:34.383Z,15.06
2018-01-31T09:43:14.926Z,15.21
2018-01-31T09:43:55.519Z,15.13
2018-01-31T09:44:36.060Z,15.32
2018-01-31T09:45:16.561Z,15.01
2018-01-31T09:45:57.225Z,15.07
2018-01-31T09:46:37.792Z,15.07
2018-01-31T09:47:18.330Z,15.01
2018-01-31T09:47:58.840Z,14.84
2018-01-31T09:48:39.400Z,14.75
2018-01-31T09:49:19.977Z,14.8
2018-01-31T09:50:00.538Z,14.94
2018-01-31T09:50:41.117Z,15.02
2018-01-31T09:51:21.605Z,14.84
2018-01-31T09:52:02.179Z,14.81
2018-01-31T09:52:42.751Z,14.77
2018-01-31T09:53:23.340Z,14.7
2018-01-31T09:54:03.889Z,14.5
2018-01-31T09:54:44.398Z,14.36
2018-01-31T09:55:24.906Z,14.65
2018-01-31T09:56:05.463Z,15.03
2018-01-31T09:56:46.008Z,14.88
2018-01-31T09:57:26.532Z,15.13
2018-01-31T09:58:07.125Z,15.28
2018-01-31T09:58:47.700Z,15.21
2018-01-31T09:59:28.216Z,15.03
2018-01-31T10:00:08.752Z,15.21
2018-01-31T10:00:49.272Z,15.11
2018-01-31T10:01:29.920Z,15.03
2018-01-31T10:02:10.400Z,14.91
2018-01-31T10:02:50.894Z,15.06
2018-01-31T10:03:31.432Z,14.75
2018-01-31T10:04:11.971Z,14.77
2018-01-31T10:04:52.521Z,14.94
2018-01-31T10:05:33.058Z,15.06
2018-01-31T10:06:13.596Z,14.92
2018-01-31T10:06:54.085Z,14.89
2018-01-31T10:07:34.636Z,14.91
2018-01-31T10:08:15.140Z,15.02
2018-01-31T10:08:55.692Z,15.11
2018-01-31T10:09:36.243Z,15.01
2018-01-31T10:10:16.867Z,15.28
2018-01-31T10:10:57.379Z,15.16
2018-01-31T10:11:37.937Z,15.28
2018-01-31T10:12:18.444Z,15.13
2018-01-31T10:12:58.984Z,15.02
2018-01-31T10:13:39.480Z,14.99
2018-01-31T10:14:20.101Z,14.7
2018-01-31T10:15:00.637Z,14.65
2018-01-31T10:15:41.192Z,14.55
2018-01-31T10:16:21.759Z,14.64
2018-01-31T10:17:02.269Z,14.8
2018-01-31T10:17:42.876Z,14.51
2018-01-31T10:18:23.449Z,14.55
2018-01-31T10:19:03.975Z,14.68
2018-01-31T10:19:44.456Z,14.7
2018-01-31T10:20:24.995Z,14.91
2018-01-31T10:21:05.530Z,14.8
2018-01-31T10:21:46.133Z,14.65
2018-01-31T10:22:26.627Z,14.84
2018-01-31T10:23:07.160Z,14.83
2018-01-31T10:23:47.735Z,14.57
2018-01-31T10:24:28.271Z,14.61
2018-01-31T10:25:08.809Z,14.61
2018-01-31T10:25:49.391Z,14.61
2018-01-31T10:26:29.989Z,14.65
2018-01-31T10:27:10.468Z,14.77
2018-01-31T10:27:51.029Z,14.47
2018-01-31T10:28:31.539Z,14.75
2018-01-31T10:29:12.095Z,14.62
2018-01-31T10:29:52.692Z,14.75
2018-01-31T10:30:33.200Z,14.84
2018-01-31T10:31:13.716Z,14.81
2018-01-31T10:31:54.224Z,15.1
2018-01-31T10:32:34.805Z,15.27
2018-01-31T10:33:15.347Z,15.03
2018-01-31T10:33:55.870Z,15.36
2018-01-31T10:34:36.381Z,15.54
2018-01-31T10:35:16.935Z,15.36
2018-01-31T10:35:57.570Z,15.06
2018-01-31T10:36:38.077Z,15.14
2018-01-31T10:37:18.628Z,15.32
2018-01-31T10:37:59.149Z,15.25
2018-01-31T10:38:39.733Z,15.35
2018-01-31T10:39:20.264Z,14.94